Time;durP1;ratioP1;P1;durP2;ratioP2;P2;SDS_P1;SDS_P2;PMS_P1;PMS_P2;Temp;Humidity;BMP_temperature;BMP_pressure;BME280_temperature;BME280_humidity;BME280_pressure;Samples;Min_cycle;Max_cycle;Signal;HPM_P1;HPM_P2
2021/06/02 00:02:02;;;;;;;12.55;8.30;;;;;;;15.21;100.00;101561.34;3577523;40;20037;-65
2021/06/02 00:04:29;;;;;;;11.75;8.63;;;;;;;15.18;100.00;101558.91;3579429;40;20125;-66
2021/06/02 00:06:57;;;;;;;15.73;8.63;;;;;;;15.14;100.00;101560.22;3579639;40;20033;-66
2021/06/02 00:09:24;;;;;;;14.88;9.13;;;;;;;15.04;100.00;101560.25;3581353;40;20047;-66
2021/06/02 00:11:51;;;;;;;11.80;9.40;;;;;;;14.94;100.00;101552.16;3581666;40;20043;-65
2021/06/02 00:14:19;;;;;;;14.23;9.27;;;;;;;15.09;100.00;101557.09;3580473;40;20137;-66
2021/06/02 00:16:45;;;;;;;13.13;8.95;;;;;;;15.17;100.00;101554.50;3581703;40;20355;-66
2021/06/02 00:19:11;;;;;;;12.48;9.07;;;;;;;15.12;100.00;101556.78;3581583;40;20126;-66
2021/06/02 00:21:37;;;;;;;12.00;9.60;;;;;;;15.07;100.00;101558.13;3581368;40;20388;-66
2021/06/02 00:24:04;;;;;;;15.48;9.30;;;;;;;14.99;100.00;101563.41;3581025;40;20713;-66
2021/06/02 00:26:34;;;;;;;15.85;10.27;;;;;;;14.98;100.00;101560.84;3581258;40;20303;-66
2021/06/02 00:29:04;;;;;;;15.73;10.25;;;;;;;15.09;100.00;101557.97;3581783;40;20060;-66
2021/06/02 00:31:31;;;;;;;14.07;9.85;;;;;;;15.03;100.00;101567.53;3581623;40;20097;-66
2021/06/02 00:33:57;;;;;;;12.98;10.05;;;;;;;14.94;100.00;101565.69;3581398;40;20047;-66
2021/06/02 00:36:23;;;;;;;12.60;10.38;;;;;;;14.96;100.00;101563.72;3581595;40;20055;-66
2021/06/02 00:38:51;;;;;;;16.00;10.30;;;;;;;15.00;100.00;101565.13;3580937;40;20085;-66
2021/06/02 00:41:17;;;;;;;13.43;10.52;;;;;;;14.93;100.00;101568.56;3581389;40;20052;-66
2021/06/02 00:43:44;;;;;;;12.80;9.82;;;;;;;14.89;100.00;101562.59;3581219;40;20037;-66
2021/06/02 00:46:13;;;;;;;14.55;10.27;;;;;;;14.97;100.00;101567.28;3580359;40;20130;-66
2021/06/02 00:48:42;;;;;;;14.25;9.90;;;;;;;14.92;100.00;101566.88;3578621;40;20036;-66
2021/06/02 00:51:09;;;;;;;18.15;11.07;;;;;;;14.86;100.00;101562.88;3581024;40;20160;-66
2021/06/02 00:53:36;;;;;;;14.27;10.85;;;;;;;14.89;100.00;101557.16;3581286;40;20299;-66
2021/06/02 00:56:03;;;;;;;15.65;10.55;;;;;;;14.82;100.00;101565.03;3581427;40;20035;-66
2021/06/02 00:58:31;;;;;;;15.73;10.95;;;;;;;14.74;100.00;101558.63;3581401;40;20036;-66
2021/06/02 01:00:58;;;;;;;18.58;11.85;;;;;;;14.74;100.00;101555.91;3581720;40;20040;-66
2021/06/02 01:03:28;;;;;;;18.08;11.85;;;;;;;14.67;100.00;101553.78;3581413;40;20072;-65
2021/06/02 01:05:56;;;;;;;15.10;11.63;;;;;;;14.79;100.00;101551.75;3668354;22;20051;-66
2021/06/02 01:08:23;;;;;;;15.05;11.38;;;;;;;14.88;100.00;101555.44;3579877;39;20036;-66
2021/06/02 01:10:50;;;;;;;16.42;12.13;;;;;;;14.89;100.00;101552.59;3580851;40;20049;-66
2021/06/02 01:13:19;;;;;;;14.18;11.18;;;;;;;14.83;100.00;101549.63;3581415;40;20319;-66
2021/06/02 01:15:46;;;;;;;15.60;11.25;;;;;;;14.87;100.00;101545.63;3580978;40;20116;-67
2021/06/02 01:18:13;;;;;;;18.85;12.07;;;;;;;14.73;100.00;101546.09;3581333;40;20048;-66
2021/06/02 01:20:40;;;;;;;16.92;11.25;;;;;;;14.72;100.00;101539.81;3581489;40;20054;-66
2021/06/02 01:23:08;;;;;;;14.10;10.65;;;;;;;14.73;100.00;101532.53;3579786;40;20041;-66
2021/06/02 01:25:35;;;;;;;19.98;11.02;;;;;;;14.69;100.00;101532.84;3581419;40;20419;-66
2021/06/02 01:28:03;;;;;;;14.48;11.07;;;;;;;14.73;100.00;101541.53;3580534;40;20052;-66
2021/06/02 01:30:30;;;;;;;14.52;10.50;;;;;;;14.71;100.00;101532.69;3581565;40;20113;-66
2021/06/02 01:33:28;;;;;;;15.75;10.32;;;;;;;14.74;100.00;101523.41;3580155;40;20186;-66
2021/06/02 01:35:58;;;;;;;16.95;10.27;;;;;;;14.76;100.00;101516.00;3580558;40;20051;-66
2021/06/02 01:39:04;;;;;;;16.20;9.77;;;;;;;14.76;100.00;101518.69;3579907;40;20126;-66
2021/06/02 01:41:40;;;;;;;17.35;10.02;;;;;;;14.69;100.00;101513.00;3580896;40;20044;-67
2021/06/02 01:44:35;;;;;;;14.00;9.63;;;;;;;14.68;100.00;101505.91;3580983;40;20033;-66
2021/06/02 01:47:40;;;;;;;14.57;9.55;;;;;;;14.69;100.00;101505.75;3581398;40;20055;-66
2021/06/02 01:51:02;;;;;;;11.50;8.88;;;;;;;14.83;100.00;101511.69;3580584;40;20419;-66
2021/06/02 01:53:47;;;;;;;14.80;9.90;;;;;;;14.71;100.00;101508.31;3529368;40;20046;-66
2021/06/02 01:56:41;;;;;;;14.70;9.85;;;;;;;14.68;100.00;101501.31;3580764;40;20052;-66
2021/06/02 01:59:42;;;;;;;12.55;8.93;;;;;;;14.66;100.00;101495.22;3581185;40;20044;-66
2021/06/02 02:02:27;;;;;;;11.70;9.05;;;;;;;14.65;100.00;101493.50;3580090;40;20067;-66
2021/06/02 02:05:16;;;;;;;14.07;9.43;;;;;;;14.46;100.00;101482.69;3580847;40;20037;-66
2021/06/02 02:08:10;;;;;;;13.80;9.45;;;;;;;14.29;100.00;101485.13;3580914;40;20044;-66
2021/06/02 02:10:43;;;;;;;10.45;8.50;;;;;;;14.30;100.00;101481.41;3580288;40;20304;-66
2021/06/02 02:13:25;;;;;;;12.35;9.23;;;;;;;14.14;100.00;101483.88;3579841;40;20049;-67
2021/06/02 02:16:07;;;;;;;14.40;9.60;;;;;;;14.13;100.00;101487.56;3581274;40;20178;-66
2021/06/02 02:18:45;;;;;;;14.20;10.10;;;;;;;14.12;100.00;101491.25;3580320;40;20048;-66
2021/06/02 02:21:27;;;;;;;13.77;10.00;;;;;;;14.20;100.00;101494.13;3579560;40;20134;-67
2021/06/02 02:23:58;;;;;;;14.55;9.27;;;;;;;14.28;100.00;101502.38;3579722;40;20060;-66
2021/06/02 02:26:29;;;;;;;17.80;11.00;;;;;;;14.28;100.00;101499.69;3579935;40;20049;-66
2021/06/02 02:29:22;;;;;;;13.02;10.25;;;;;;;14.31;100.00;101503.94;3581360;40;20148;-66
2021/06/02 02:32:14;;;;;;;15.20;10.05;;;;;;;14.25;100.00;101510.81;3580615;40;20049;-66
2021/06/02 02:34:58;;;;;;;14.38;9.43;;;;;;;14.12;100.00;101511.09;3578120;40;20049;-66
2021/06/02 02:37:31;;;;;;;13.48;10.15;;;;;;;14.12;100.00;101504.81;3579757;40;20158;-66
2021/06/02 02:40:04;;;;;;;16.85;10.55;;;;;;;14.19;100.00;101512.22;3580159;40;20374;-66
2021/06/02 02:42:43;;;;;;;13.60;10.10;;;;;;;14.16;100.00;101512.53;3579968;40;20049;-66
2021/06/02 02:45:20;;;;;;;16.15;10.40;;;;;;;14.19;100.00;101503.22;3580342;40;20044;-66
2021/06/02 02:48:00;;;;;;;15.82;11.13;;;;;;;14.06;100.00;101500.84;3580784;40;20060;-66
2021/06/02 02:50:34;;;;;;;18.70;10.55;;;;;;;14.01;100.00;101493.13;3580467;40;20054;-66
2021/06/02 02:53:04;;;;;;;16.92;10.48;;;;;;;13.94;100.00;101492.00;3580078;40;20407;-66
2021/06/02 02:55:32;;;;;;;15.10;11.05;;;;;;;13.95;100.00;101493.69;3580592;40;20040;-67
2021/06/02 02:58:04;;;;;;;15.02;11.00;;;;;;;13.89;100.00;101483.44;3580337;40;20056;-67
2021/06/02 03:00:36;;;;;;;15.48;11.18;;;;;;;13.82;100.00;101482.31;3579642;40;20053;-66
2021/06/02 03:03:09;;;;;;;14.77;10.68;;;;;;;13.79;100.00;101488.00;3579589;40;20647;-67
2021/06/02 03:05:39;;;;;;;13.45;10.30;;;;;;;13.79;100.00;101483.44;3580641;40;20384;-66
2021/06/02 03:08:12;;;;;;;16.33;10.73;;;;;;;13.77;100.00;101490.00;3580152;40;20035;-66
2021/06/02 03:10:42;;;;;;;13.90;9.95;;;;;;;13.70;100.00;101494.28;3580136;40;20318;-66
2021/06/02 03:13:22;;;;;;;15.63;10.75;;;;;;;13.71;100.00;101490.59;3580415;40;20089;-66
2021/06/02 03:15:51;;;;;;;15.52;11.07;;;;;;;13.75;100.00;101487.44;3579865;40;20036;-66
2021/06/02 03:18:28;;;;;;;15.45;10.63;;;;;;;13.66;100.00;101486.44;3579776;40;20486;-66
2021/06/02 03:21:08;;;;;;;14.90;10.27;;;;;;;13.70;100.00;101496.97;3579722;40;20092;-66
2021/06/02 03:23:49;;;;;;;16.27;10.85;;;;;;;13.59;100.00;101485.28;3579657;40;20056;-66
2021/06/02 03:26:18;;;;;;;15.38;11.40;;;;;;;13.51;100.00;101476.19;3579632;40;20063;-66
2021/06/02 03:28:56;;;;;;;14.95;10.88;;;;;;;13.50;100.00;101480.75;3580597;40;20059;-66
2021/06/02 03:31:32;;;;;;;16.92;11.23;;;;;;;13.44;100.00;101483.97;3580458;40;20056;-66
2021/06/02 03:34:15;;;;;;;17.98;11.38;;;;;;;13.45;100.00;101483.00;3581833;40;20060;-66
2021/06/02 03:36:49;;;;;;;16.25;11.52;;;;;;;13.50;100.00;101486.16;3581046;40;20072;-66
2021/06/02 03:39:22;;;;;;;15.68;11.23;;;;;;;13.50;100.00;101488.84;3580484;40;20044;-66
2021/06/02 03:41:57;;;;;;;19.52;11.65;;;;;;;13.42;100.00;101491.38;3581867;40;20384;-66
2021/06/02 03:44:44;;;;;;;17.65;11.80;;;;;;;13.35;100.00;101487.53;3580753;40;20125;-66
2021/06/02 03:47:34;;;;;;;15.60;11.50;;;;;;;13.36;100.00;101484.69;3581103;40;20065;-66
2021/06/02 03:50:06;;;;;;;14.43;10.82;;;;;;;13.39;100.00;101492.50;3581073;40;20045;-66
2021/06/02 03:52:43;;;;;;;15.68;11.48;;;;;;;13.36;100.00;101494.66;3580417;40;20064;-66
2021/06/02 03:55:17;;;;;;;17.13;12.73;;;;;;;13.43;100.00;101490.41;3581054;40;20057;-66
2021/06/02 03:57:46;;;;;;;20.98;12.23;;;;;;;13.36;100.00;101490.09;3581355;40;20124;-66
2021/06/02 04:00:16;;;;;;;16.17;11.93;;;;;;;13.35;100.00;101492.94;3580741;40;20033;-66
2021/06/02 04:02:56;;;;;;;;;;;;;;;13.40;100.00;101493.38;3581841;40;20053;-66
2021/06/02 04:05:30;;;;;;;14.23;10.88;;;;;;;13.38;100.00;101495.34;3581148;40;19981;-66
2021/06/02 04:08:08;;;;;;;15.30;11.57;;;;;;;13.45;100.00;101494.66;3581319;40;20400;-66
2021/06/02 04:10:43;;;;;;;20.83;13.27;;;;;;;13.40;100.00;101498.78;3581066;40;20060;-66
2021/06/02 04:13:19;;;;;;;20.92;12.35;;;;;;;13.48;100.00;101499.78;3580615;40;20164;-66
2021/06/02 04:15:49;;;;;;;16.70;12.13;;;;;;;13.47;100.00;101502.63;3581302;40;20045;-66
2021/06/02 04:18:19;;;;;;;18.83;12.05;;;;;;;13.43;100.00;101503.91;3581284;40;20048;-66
2021/06/02 04:20:45;;;;;;;19.13;13.15;;;;;;;13.37;100.00;101505.31;3581716;40;20052;-66
2021/06/02 04:23:14;;;;;;;20.63;13.27;;;;;;;13.43;100.00;101501.22;3580104;40;20048;-66
2021/06/02 04:25:42;;;;;;;18.85;11.63;;;;;;;13.53;100.00;101507.50;3581853;40;20142;-66
2021/06/02 04:28:09;;;;;;;14.90;11.60;;;;;;;13.54;100.00;101505.63;3580941;40;20050;-66
2021/06/02 04:30:38;;;;;;;17.73;12.15;;;;;;;13.56;100.00;101499.09;3581166;40;20122;-66
2021/06/02 04:33:09;;;;;;;17.83;12.52;;;;;;;13.55;100.00;101494.69;3581221;40;20314;-66
2021/06/02 04:35:40;;;;;;;15.88;12.20;;;;;;;13.64;100.00;101501.94;3581995;40;20060;-66
2021/06/02 04:38:07;;;;;;;18.35;12.18;;;;;;;13.64;100.00;101501.09;3580868;40;20056;-66
2021/06/02 04:40:34;;;;;;;17.70;11.75;;;;;;;13.79;100.00;101504.25;3580873;40;20065;-66
2021/06/02 04:43:01;;;;;;;16.42;12.25;;;;;;;13.80;100.00;101497.84;3581138;40;20064;-66
2021/06/02 04:45:36;;;;;;;20.60;12.82;;;;;;;13.87;100.00;101496.28;3579980;40;20467;-66
2021/06/02 04:48:06;;;;;;;21.67;11.63;;;;;;;14.06;100.00;101499.97;3580794;40;20033;-66
2021/06/02 04:50:42;;;;;;;19.05;12.60;;;;;;;14.06;100.00;101491.84;3581315;40;20088;-66
2021/06/02 04:53:39;;;;;;;17.40;12.18;;;;;;;14.22;100.00;101494.81;3580672;40;20053;-66
2021/06/02 04:56:34;;;;;;;15.80;11.80;;;;;;;14.48;100.00;101488.81;3580484;40;20408;-66
2021/06/02 04:59:23;;;;;;;16.85;12.75;;;;;;;14.50;100.00;101492.22;3580604;40;20065;-66
2021/06/02 05:02:02;;;;;;;16.08;11.73;;;;;;;15.07;100.00;101489.47;3580549;40;20102;-66
2021/06/02 05:05:03;;;;;;;15.45;11.75;;;;;;;16.22;100.00;101487.09;3580754;40;20052;-66
2021/06/02 05:08:09;;;;;;;15.15;11.07;;;;;;;15.95;100.00;101488.91;3581634;40;20055;-66
2021/06/02 05:11:20;;;;;;;15.55;11.57;;;;;;;15.44;100.00;101493.97;3569749;40;20040;-66
2021/06/02 05:14:28;;;;;;;16.55;11.38;;;;;;;15.01;100.00;101490.06;3581499;40;20320;-66
2021/06/02 05:17:35;;;;;;;15.75;12.73;;;;;;;14.92;100.00;101494.53;3579760;40;20122;-66
2021/06/02 05:20:52;;;;;;;16.70;10.98;;;;;;;14.83;100.00;101493.56;3581189;40;20148;-66
2021/06/02 05:23:59;;;;;;;17.92;11.57;;;;;;;14.89;100.00;101497.53;3569438;40;20132;-66
2021/06/02 05:27:11;;;;;;;18.95;12.63;;;;;;;14.65;100.00;101496.19;3580738;40;20045;-66
2021/06/02 05:30:21;;;;;;;17.42;11.48;;;;;;;14.75;100.00;101500.72;3581446;40;20450;-67
2021/06/02 05:33:32;;;;;;;16.95;12.13;;;;;;;14.82;100.00;101501.84;3581572;40;20051;-66
2021/06/02 05:36:31;;;;;;;14.77;11.80;;;;;;;14.88;100.00;101501.25;3578115;40;20025;-66
2021/06/02 05:39:33;;;;;;;16.95;12.02;;;;;;;14.96;100.00;101504.06;3578510;40;20055;-66
2021/06/02 05:42:16;;;;;;;15.55;11.15;;;;;;;15.14;100.00;101500.56;3581030;40;20033;-66
2021/06/02 05:45:33;;;;;;;16.85;11.68;;;;;;;15.34;100.00;101496.75;3581740;40;20040;-67
2021/06/02 05:48:49;;;;;;;16.40;11.82;;;;;;;15.38;100.00;101492.72;3581260;40;20048;-66
2021/06/02 05:51:58;;;;;;;17.73;12.38;;;;;;;15.51;100.00;101495.06;3580371;40;20041;-67
2021/06/02 05:54:47;;;;;;;;;;;;;;;15.62;100.00;101488.59;3577115;40;20120;-67
2021/06/02 05:57:58;;;;;;;14.80;11.73;;;;;;;15.58;100.00;101484.47;3551600;40;19942;-66
2021/06/02 06:01:03;;;;;;;17.52;11.27;;;;;;;15.79;100.00;101484.19;3581594;40;20059;-66
2021/06/02 06:04:12;;;;;;;17.67;11.63;;;;;;;16.00;100.00;101486.56;3581418;40;20052;-66
2021/06/02 06:06:46;;;;;;;14.63;11.18;;;;;;;16.14;100.00;101487.91;3581777;40;20053;-66
2021/06/02 06:09:59;;;;;;;17.17;12.02;;;;;;;16.52;100.00;101495.78;3581404;40;20045;-66
2021/06/02 06:13:07;;;;;;;14.88;11.45;;;;;;;17.04;100.00;101484.91;3580965;40;20057;-66
2021/06/02 06:15:55;;;;;;;17.20;11.90;;;;;;;17.20;100.00;101483.28;3581007;40;20085;-66
2021/06/02 06:19:15;;;;;;;13.80;10.95;;;;;;;17.54;100.00;101487.81;3580837;40;20434;-66
2021/06/02 06:22:05;;;;;;;13.88;10.35;;;;;;;18.15;100.00;101489.25;3581600;40;20048;-67
2021/06/02 06:24:38;;;;;;;12.45;10.38;;;;;;;18.09;100.00;101483.63;3581423;40;20422;-66
2021/06/02 06:27:11;;;;;;;14.75;10.93;;;;;;;18.00;100.00;101477.31;3581210;40;20097;-65
2021/06/02 06:29:51;;;;;;;15.77;11.23;;;;;;;18.54;100.00;101482.22;3580762;40;20071;-65
2021/06/02 06:32:18;;;;;;;13.32;10.32;;;;;;;18.85;100.00;101481.47;3581633;40;20040;-66
2021/06/02 06:34:48;;;;;;;13.13;9.57;;;;;;;19.18;100.00;101479.47;3581384;40;20051;-66
2021/06/02 06:37:17;;;;;;;12.25;9.23;;;;;;;18.88;100.00;101484.72;3581496;40;20064;-65
2021/06/02 06:39:48;;;;;;;11.35;9.38;;;;;;;18.99;100.00;101490.81;3581929;40;20064;-67
2021/06/02 06:42:19;;;;;;;13.90;9.38;;;;;;;18.73;100.00;101492.75;3581126;40;20044;-65
2021/06/02 06:44:50;;;;;;;14.65;9.63;;;;;;;19.10;100.00;101489.59;3581185;40;20049;-65
2021/06/02 06:47:17;;;;;;;11.07;9.25;;;;;;;19.12;100.00;101488.38;3581231;40;20057;-66
2021/06/02 06:49:48;;;;;;;14.00;10.30;;;;;;;19.11;100.00;101494.88;3581595;40;20057;-66
2021/06/02 06:52:16;;;;;;;13.18;9.93;;;;;;;19.09;100.00;101496.91;3581202;40;20059;-66
2021/06/02 06:54:42;;;;;;;12.07;9.02;;;;;;;19.30;100.00;101487.25;3581522;40;20311;-66
2021/06/02 06:57:09;;;;;;;12.63;8.40;;;;;;;19.47;100.00;101496.22;3581049;40;20074;-66
2021/06/02 06:59:35;;;;;;;12.50;8.25;;;;;;;19.73;100.00;101488.53;3581428;40;20054;-66
2021/06/02 07:02:03;;;;;;;10.55;8.98;;;;;;;19.76;100.00;101476.41;3581944;40;20112;-66
2021/06/02 07:04:32;;;;;;;12.32;8.27;;;;;;;19.87;100.00;101478.72;3582878;40;20029;-66
2021/06/02 07:06:59;;;;;;;10.20;7.60;;;;;;;19.92;100.00;101472.72;3582968;40;20061;-66
2021/06/02 07:09:25;;;;;;;17.15;7.75;;;;;;;19.73;100.00;101466.69;3583220;40;20095;-66
2021/06/02 07:11:56;;;;;;;9.85;7.60;;;;;;;19.74;100.00;101473.00;3583075;40;20053;-66
2021/06/02 07:14:24;;;;;;;8.73;6.80;;;;;;;20.13;100.00;101467.41;3582727;40;20185;-66
2021/06/02 07:16:51;;;;;;;10.38;7.10;;;;;;;20.47;100.00;101476.16;3582946;40;20049;-66
2021/06/02 07:19:21;;;;;;;12.10;7.85;;;;;;;20.29;100.00;101471.91;3582169;40;20054;-65
2021/06/02 07:21:49;;;;;;;9.23;6.80;;;;;;;20.69;100.00;101470.84;3582822;40;20041;-66
2021/06/02 07:24:17;;;;;;;9.15;7.10;;;;;;;20.73;100.00;101472.16;3583037;40;20042;-66
2021/06/02 07:26:43;;;;;;;10.65;7.38;;;;;;;20.82;100.00;101473.78;3582721;40;20511;-66
2021/06/02 07:29:09;;;;;;;10.48;6.85;;;;;;;21.12;100.00;101469.09;3582850;40;20047;-64
2021/06/02 07:31:35;;;;;;;14.95;6.18;;;;;;;21.26;100.00;101467.41;3582630;40;20400;-67
2021/06/02 07:34:01;;;;;;;11.27;6.93;;;;;;;21.02;100.00;101464.97;3583020;40;20037;-67
2021/06/02 07:36:28;;;;;;;10.05;7.10;;;;;;;21.16;100.00;101461.38;3583132;40;20493;-66
2021/06/02 07:38:54;;;;;;;7.35;5.88;;;;;;;21.57;100.00;101458.09;3582912;40;20033;-67
2021/06/02 07:41:20;;;;;;;8.23;5.80;;;;;;;21.80;100.00;101448.81;3582857;40;20126;-67
2021/06/02 07:43:46;;;;;;;9.75;6.00;;;;;;;21.77;100.00;101457.44;3582664;40;20049;-66
2021/06/02 07:46:12;;;;;;;8.32;6.40;;;;;;;21.72;100.00;101454.44;3582708;40;20049;-67
2021/06/02 07:48:38;;;;;;;7.30;5.93;;;;;;;21.87;100.00;101452.47;3583420;40;20041;-66
2021/06/02 07:51:05;;;;;;;8.18;5.68;;;;;;;21.90;100.00;101449.34;3582731;40;20062;-67
2021/06/02 07:53:32;;;;;;;10.15;5.80;;;;;;;22.11;100.00;101448.44;3583594;40;20067;-67
2021/06/02 07:55:58;;;;;;;8.70;5.20;;;;;;;22.11;100.00;101453.09;3583403;40;20132;-67
2021/06/02 07:58:24;;;;;;;8.02;6.03;;;;;;;22.31;100.00;101454.09;3582824;40;20052;-67
2021/06/02 08:00:50;;;;;;;12.50;6.13;;;;;;;22.61;100.00;101451.16;3582890;40;20065;-67
2021/06/02 08:03:16;;;;;;;8.60;6.28;;;;;;;22.38;100.00;101455.03;3582941;40;20079;-67
2021/06/02 08:05:42;;;;;;;13.05;7.95;;;;;;;22.67;100.00;101458.59;3582799;40;20130;-67
2021/06/02 08:08:09;;;;;;;9.63;7.68;;;;;;;22.87;100.00;101446.88;3582793;40;20334;-67
2021/06/02 08:10:36;;;;;;;11.38;7.75;;;;;;;23.07;100.00;101453.31;3582448;40;20065;-66
2021/06/02 08:13:04;;;;;;;10.45;7.82;;;;;;;23.00;100.00;101448.84;3582405;40;20057;-67
2021/06/02 08:15:30;;;;;;;12.05;7.18;;;;;;;23.12;100.00;101449.16;3582640;40;20063;-67
2021/06/02 08:17:57;;;;;;;13.75;7.63;;;;;;;23.08;100.00;101449.50;3582705;40;20044;-67
2021/06/02 08:20:23;;;;;;;10.10;7.20;;;;;;;22.94;100.00;101447.78;3583142;40;20129;-67
2021/06/02 08:22:49;;;;;;;8.65;6.90;;;;;;;23.15;100.00;101443.25;3582492;40;20280;-67
2021/06/02 08:25:16;;;;;;;8.00;6.63;;;;;;;23.27;100.00;101445.16;3582838;40;20065;-67
2021/06/02 08:27:45;;;;;;;8.98;6.55;;;;;;;23.52;100.00;101441.84;3583382;40;20321;-68
2021/06/02 08:30:12;;;;;;;11.63;7.05;;;;;;;23.66;99.30;101440.00;3582931;40;20037;-68
2021/06/02 08:32:38;;;;;;;10.48;6.55;;;;;;;23.44;100.00;101439.31;3582613;40;20302;-67
2021/06/02 08:35:06;;;;;;;11.48;6.50;;;;;;;23.64;100.00;101441.25;3583122;40;20040;-68
2021/06/02 08:37:32;;;;;;;9.15;5.88;;;;;;;23.87;97.70;101438.16;3581791;40;20048;-68
2021/06/02 08:39:58;;;;;;;8.25;6.25;;;;;;;24.16;92.59;101441.50;3582481;40;20298;-68
2021/06/02 08:42:25;;;;;;;10.20;5.40;;;;;;;24.64;77.18;101436.59;3582259;40;20062;-68
2021/06/02 08:44:53;;;;;;;9.82;5.38;;;;;;;24.41;86.18;101436.19;3582550;40;20420;-68
2021/06/02 08:47:19;;;;;;;9.88;6.07;;;;;;;24.47;87.53;101441.69;3581649;40;20405;-67
2021/06/02 08:49:46;;;;;;;8.38;5.18;;;;;;;24.71;82.49;101441.25;3582868;40;20141;-67
2021/06/02 08:52:12;;;;;;;8.48;5.38;;;;;;;24.84;83.20;101433.78;3582577;40;20045;-67
2021/06/02 08:54:38;;;;;;;9.43;5.20;;;;;;;24.98;79.72;101431.84;3582652;40;20051;-67
2021/06/02 08:57:07;;;;;;;11.38;5.10;;;;;;;25.10;77.47;101434.75;3581548;40;20052;-68
2021/06/02 08:59:33;;;;;;;7.15;4.65;;;;;;;24.97;71.41;101440.31;3581851;40;20066;-67
2021/06/02 09:02:01;;;;;;;6.90;4.18;;;;;;;25.12;59.94;101420.78;3582457;40;20045;-68
2021/06/02 09:04:27;;;;;;;6.72;4.60;;;;;;;25.06;59.28;101430.75;3582335;40;20302;-67
2021/06/02 09:06:53;;;;;;;6.22;4.30;;;;;;;25.29;60.44;101430.19;3582156;40;20033;-67
2021/06/02 09:09:20;;;;;;;4.20;3.80;;;;;;;25.59;55.37;101423.25;3582422;40;20048;-68
2021/06/02 09:11:48;;;;;;;4.88;3.83;;;;;;;25.55;52.33;101430.31;3581462;40;20041;-68
2021/06/02 09:14:25;;;;;;;6.70;3.83;;;;;;;25.42;55.64;101434.81;3582179;40;20061;-68
2021/06/02 09:16:53;;;;;;;6.05;3.50;;;;;;;25.38;50.33;101435.50;3582243;40;20065;-66
2021/06/02 09:19:36;;;;;;;6.03;3.75;;;;;;;25.67;50.00;101439.53;3581397;40;20045;-68
2021/06/02 09:22:03;;;;;;;5.32;3.58;;;;;;;25.32;48.88;101437.22;3581832;40;20093;-68
2021/06/02 09:24:53;;;;;;;7.10;3.20;;;;;;;25.36;50.27;101438.47;3583024;40;20033;-67
2021/06/02 09:27:39;;;;;;;3.35;3.05;;;;;;;25.56;57.04;101432.84;3582049;40;20049;-67
2021/06/02 09:30:06;;;;;;;3.42;2.83;;;;;;;25.74;45.60;101428.47;3581827;40;20088;-67
2021/06/02 09:32:41;;;;;;;3.90;2.60;;;;;;;25.83;47.79;101438.16;3582185;40;20312;-68
2021/06/02 09:35:09;;;;;;;5.60;3.05;;;;;;;25.99;48.72;101436.78;3582570;40;20036;-67
2021/06/02 09:37:49;;;;;;;3.63;3.15;;;;;;;26.20;45.74;101428.09;3581718;40;20052;-67
2021/06/02 09:40:24;;;;;;;5.88;2.78;;;;;;;26.38;44.79;101434.72;3581445;40;20088;-67
2021/06/02 09:42:50;;;;;;;5.53;3.83;;;;;;;26.32;50.30;101435.66;3581870;40;20040;-68
2021/06/02 09:45:17;;;;;;;4.82;3.42;;;;;;;26.42;46.94;101435.13;3581882;40;20084;-67
2021/06/02 09:47:45;;;;;;;6.75;4.60;;;;;;;26.56;53.64;101434.75;3581981;40;20370;-67
2021/06/02 09:50:14;;;;;;;9.77;5.50;;;;;;;26.38;55.30;101440.25;3582531;40;20045;-67
2021/06/02 09:52:44;;;;;;;6.30;4.93;;;;;;;26.33;58.59;101437.34;3582233;40;20110;-66
2021/06/02 09:55:13;;;;;;;8.80;5.30;;;;;;;26.29;58.93;101436.09;3582003;40;20048;-68
2021/06/02 09:57:39;;;;;;;7.25;4.88;;;;;;;26.41;55.88;101431.50;3582616;40;20044;-67
2021/06/02 10:00:08;;;;;;;8.35;4.38;;;;;;;26.65;59.10;101439.97;3581795;40;20052;-67
2021/06/02 10:02:34;;;;;;;7.85;5.60;;;;;;;26.61;56.99;101436.81;3581578;40;20040;-67
2021/06/02 10:05:02;;;;;;;7.15;5.00;;;;;;;27.03;57.20;101431.47;3582238;40;20120;-68
2021/06/02 10:07:30;;;;;;;6.55;5.60;;;;;;;26.73;56.82;101431.41;3581488;40;20048;-68
2021/06/02 10:10:07;;;;;;;7.40;4.80;;;;;;;27.04;56.90;101427.63;3581663;40;20510;-68
2021/06/02 10:12:33;;;;;;;9.25;5.15;;;;;;;27.09;57.60;101424.16;3581247;40;20035;-68
2021/06/02 10:15:00;;;;;;;7.93;4.85;;;;;;;27.00;60.84;101420.03;3582930;40;20081;-68
2021/06/02 10:17:28;;;;;;;8.70;5.72;;;;;;;26.99;55.45;101418.38;3581002;40;20056;-69
2021/06/02 10:19:54;;;;;;;8.07;5.20;;;;;;;26.65;53.42;101418.72;3582079;40;20048;-68
2021/06/02 10:22:23;;;;;;;7.85;4.90;;;;;;;26.67;55.81;101426.78;3581375;40;20099;-69
2021/06/02 10:24:52;;;;;;;5.60;4.05;;;;;;;26.89;50.84;101414.22;3581814;40;20043;-68
2021/06/02 10:27:19;;;;;;;6.47;3.95;;;;;;;27.02;49.50;101412.38;3581863;40;20055;-68
2021/06/02 10:29:46;;;;;;;6.68;4.10;;;;;;;27.26;49.22;101408.63;3582296;40;20061;-68
2021/06/02 10:32:13;;;;;;;9.05;4.82;;;;;;;27.02;48.85;101404.91;3581467;40;20076;-68
2021/06/02 10:34:39;;;;;;;7.57;4.07;;;;;;;27.26;51.04;101405.03;3581042;40;20146;-68
2021/06/02 10:37:07;;;;;;;6.18;3.97;;;;;;;27.32;50.04;101400.47;3581216;40;20439;-69
2021/06/02 10:39:34;;;;;;;9.63;4.65;;;;;;;27.84;49.54;101398.00;3580666;40;20481;-69
2021/06/02 10:42:06;;;;;;;7.15;4.10;;;;;;;27.80;47.79;101413.38;3581025;40;20056;-70
2021/06/02 10:44:35;;;;;;;5.20;3.92;;;;;;;27.82;45.33;101389.06;3582432;40;20067;-69
2021/06/02 10:47:03;;;;;;;6.07;3.75;;;;;;;27.86;46.39;101393.06;3582709;40;20081;-70
2021/06/02 10:49:34;;;;;;;4.15;3.58;;;;;;;27.85;44.30;101394.13;3581895;40;20049;-69
2021/06/02 10:52:01;;;;;;;7.47;3.83;;;;;;;28.04;45.40;101397.66;3583070;40;20052;-69
2021/06/02 10:57:11;;;;;;;4.45;3.70;;;;;;;28.30;41.36;101390.81;3646841;23;20075;-70
2021/06/02 10:59:38;;;;;;;7.78;3.80;;;;;;;28.24;44.83;101393.69;3621561;39;20057;-69
2021/06/02 11:02:06;;;;;;;4.40;3.85;;;;;;;28.23;43.70;101394.78;3622627;39;20046;-68
2021/06/02 11:04:33;;;;;;;4.30;3.40;;;;;;;28.28;41.40;101398.53;3622452;39;20109;-69
2021/06/02 11:07:17;;;;;;;5.88;3.33;;;;;;;28.46;40.24;101388.38;3622156;39;20035;-69
2021/06/02 11:09:57;;;;;;;5.07;3.25;;;;;;;28.55;39.47;101388.84;3621998;39;20055;-69
2021/06/02 11:12:25;;;;;;;4.30;2.80;;;;;;;28.75;36.05;101383.75;3622302;39;20049;-69
2021/06/02 11:14:52;;;;;;;3.50;2.72;;;;;;;28.69;35.75;101381.16;3621678;39;20043;-70
2021/06/02 11:17:20;;;;;;;4.82;3.13;;;;;;;28.47;36.04;101390.06;3619315;39;20046;-69
2021/06/02 11:19:51;;;;;;;5.28;3.00;;;;;;;28.46;35.91;101383.69;3623891;39;20104;-69
2021/06/02 11:22:20;;;;;;;4.90;3.20;;;;;;;28.78;37.04;101380.53;3619805;39;20278;-69
2021/06/02 11:24:48;;;;;;;5.45;2.80;;;;;;;28.19;35.28;101383.34;3622081;39;20154;-69
2021/06/02 11:27:35;;;;;;;3.35;2.78;;;;;;;28.38;35.70;101380.44;3621298;39;20079;-69
2021/06/02 11:30:26;;;;;;;4.57;2.70;;;;;;;28.99;33.28;101375.41;3620462;39;20058;-69
2021/06/02 11:32:57;;;;;;;3.88;3.05;;;;;;;28.78;34.29;101377.75;3607894;39;20087;-69
2021/06/02 11:36:00;;;;;;;3.67;2.97;;;;;;;28.47;34.79;101370.69;3621121;39;20463;-70
2021/06/02 11:38:27;;;;;;;4.97;3.00;;;;;;;28.17;33.93;101371.69;3619986;39;20054;-70
2021/06/02 11:40:55;;;;;;;7.43;3.42;;;;;;;28.72;35.33;101381.50;3618998;39;20059;-69
2021/06/02 11:43:22;;;;;;;3.70;2.90;;;;;;;28.56;36.24;101383.06;3622947;39;20384;-70
2021/06/02 11:45:49;;;;;;;3.28;2.97;;;;;;;28.86;35.61;101376.53;3620378;39;20039;-69
2021/06/02 11:48:24;;;;;;;3.90;2.63;;;;;;;28.75;33.74;101380.16;3619418;39;20042;-69
2021/06/02 11:50:51;;;;;;;4.60;2.50;;;;;;;28.64;35.82;101384.66;3620274;39;20065;-70